This is the latest recevied weather packets stored in our database for station/object KQ4UPF. If no packets are shown the sender has not sent any weather packets the latest 10 day(s).
| Time | Temp. | Humidity | Pressure | Rain* | Wind** | Luminosity | Snow |
|---|---|---|---|---|---|---|---|
| 1777984875 | 16.67° C | 80% | 1015.7 hPa | 0 mm | - | 138 W/m² | - |
| 1777984572 | 16.11° C | 79% | 1015.6 hPa | 0 mm | - | 141 W/m² | - |
| 1777984268 | 15.56° C | 83% | 1015.7 hPa | 0 mm | - | 146 W/m² | - |
| 1777983965 | 15° C | 84% | 1015.9 hPa | 0 mm | - | 123 W/m² | - |
| 1777983662 | 14.44° C | 86% | 1015.7 hPa | 0 mm | - | 118 W/m² | - |
| 1777983359 | 13.33° C | 89% | 1015.7 hPa | 0 mm | - | 110 W/m² | - |
| 1777983056 | 12.78° C | 91% | 1015.7 hPa | 0 mm | - | 88 W/m² | - |
| 1777982752 | 12.22° C | 93% | 1015.5 hPa | 0 mm | - | 54 W/m² | - |
| 1777982448 | 12.22° C | 93% | 1015.4 hPa | 0 mm | - | 38 W/m² | - |
| 1777982142 | 12.22° C | 93% | 1015.1 hPa | 0 mm | - | 35 W/m² | - |
| 1777981840 | 11.67° C | 94% | 1015.1 hPa | 0 mm | - | 28 W/m² | - |
| 1777981537 | 11.67° C | 95% | 1014.9 hPa | 0 mm | - | 24 W/m² | - |
| 1777981233 | 11.67° C | 96% | 1014.7 hPa | 0 mm | - | 25 W/m² | - |
| 1777980930 | 11.11° C | 97% | 1014.7 hPa | 0 mm | - | 24 W/m² | - |
| 1777980626 | 11.11° C | 97% | 1014.5 hPa | 0 mm | - | 24 W/m² | - |
| 1777980322 | 10.56° C | 97% | 1014.4 hPa | 0 mm | - | 19 W/m² | - |
| 1777980021 | 10.56° C | 97% | 1014.6 hPa | 0 mm | - | 17 W/m² | - |
| 1777979714 | 10.56° C | 98% | 1014.6 hPa | 0 mm | - | 16 W/m² | - |
| 1777979410 | 10.56° C | 97% | 1014.3 hPa | 0 mm | - | 14 W/m² | - |
| 1777979107 | 10.56° C | 97% | 1014.3 hPa | 0 mm | - | 9 W/m² | - |
| 1777978804 | 10.56° C | 97% | 1014.4 hPa | 0 mm | - | 5 W/m² | - |
| 1777978501 | 10.56° C | 98% | 1014.2 hPa | 0 mm | - | 3 W/m² | - |
| 1777978196 | 10° C | 97% | 1014 hPa | 0 mm | - | 2 W/m² | - |
| 1777977894 | 10° C | 97% | 1014 hPa | 0 mm | - | 1 W/m² | - |
| 1777977590 | 10° C | 97% | 1014.1 hPa | 0 mm | - | 0 W/m² | - |
* Rain latest hour (hover to see other rain measurements)
** Current wind speed in m/s (hover to see current wind gust speed)